createdAt,value
2022-10-12T00:01:43.504Z,21.05
2022-10-12T00:04:10.028Z,21.55
2022-10-12T00:06:36.549Z,18.87
2022-10-12T00:09:03.278Z,25.20
2022-10-12T00:11:30.100Z,23.05
2022-10-12T00:13:58.432Z,21.80
2022-10-12T00:16:26.374Z,20.95
2022-10-12T00:18:54.974Z,20.70
2022-10-12T00:21:22.226Z,20.30
2022-10-12T00:23:49.296Z,21.70
2022-10-12T00:26:18.719Z,20.45
2022-10-12T00:28:45.755Z,17.15
2022-10-12T00:31:15.934Z,21.40
2022-10-12T00:33:42.491Z,18.50
2022-10-12T00:36:15.176Z,19.95
2022-10-12T00:38:41.799Z,16.65
2022-10-12T00:41:08.298Z,20.27
2022-10-12T00:43:41.797Z,17.73
2022-10-12T00:46:18.307Z,18.63
2022-10-12T00:48:48.370Z,15.57
2022-10-12T00:51:16.731Z,14.00
2022-10-12T00:53:48.209Z,19.98
2022-10-12T00:56:22.172Z,15.57
2022-10-12T00:58:50.042Z,14.55
2022-10-12T01:01:17.830Z,18.85
2022-10-12T01:03:44.806Z,20.60
2022-10-12T01:06:11.856Z,19.08
2022-10-12T01:08:38.844Z,18.33
2022-10-12T01:11:05.516Z,20.20
2022-10-12T01:13:32.642Z,18.98
2022-10-12T01:16:53.439Z,18.58
2022-10-12T01:19:47.845Z,15.82
2022-10-12T01:22:19.125Z,15.30
2022-10-12T01:25:17.592Z,23.95
2022-10-12T01:28:02.443Z,23.95
2022-10-12T01:30:36.428Z,18.80
2022-10-12T01:33:19.477Z,27.50
2022-10-12T01:35:58.489Z,15.83
2022-10-12T01:38:43.318Z,17.58
2022-10-12T01:41:52.379Z,17.92
2022-10-12T01:44:23.565Z,16.50
2022-10-12T01:46:52.049Z,17.40
2022-10-12T01:49:23.711Z,25.33
2022-10-12T01:51:59.016Z,16.70
2022-10-12T01:54:49.334Z,22.55
2022-10-12T01:57:49.969Z,22.15
2022-10-12T02:00:17.853Z,15.32
2022-10-12T02:03:10.648Z,18.30
2022-10-12T02:05:46.243Z,22.35
2022-10-12T02:08:34.356Z,17.38
2022-10-12T02:11:07.462Z,22.02
2022-10-12T02:13:38.605Z,16.40
2022-10-12T02:16:10.479Z,22.23
2022-10-12T02:18:42.579Z,16.35
2022-10-12T02:21:11.540Z,16.77
2022-10-12T02:23:39.023Z,15.10
2022-10-12T02:26:07.982Z,22.85
2022-10-12T02:28:37.126Z,18.37
2022-10-12T02:31:12.877Z,18.05
2022-10-12T02:33:46.899Z,23.73
2022-10-12T02:36:20.525Z,18.15
2022-10-12T02:39:28.502Z,24.80
2022-10-12T02:42:05.282Z,20.13
2022-10-12T02:44:35.358Z,18.65
2022-10-12T02:47:04.472Z,13.70
2022-10-12T02:49:34.030Z,16.80
2022-10-12T02:52:03.801Z,16.00
2022-10-12T02:54:31.097Z,21.07
2022-10-12T02:56:57.592Z,18.65
2022-10-12T02:59:24.223Z,20.48
2022-10-12T03:01:50.749Z,16.45
2022-10-12T03:04:17.333Z,22.50
2022-10-12T03:06:43.814Z,25.90
2022-10-12T03:09:10.429Z,19.48
2022-10-12T03:11:37.838Z,14.63
2022-10-12T03:14:04.659Z,21.10
2022-10-12T03:16:31.141Z,16.70
2022-10-12T03:18:57.595Z,16.97
2022-10-12T03:21:24.106Z,17.23
2022-10-12T03:23:50.724Z,16.58
2022-10-12T03:26:17.276Z,17.38
2022-10-12T03:28:43.812Z,16.50
2022-10-12T03:31:10.381Z,16.77
2022-10-12T03:33:36.834Z,21.10
2022-10-12T03:36:03.750Z,18.08
2022-10-12T03:38:30.309Z,18.48
2022-10-12T03:40:57.385Z,29.25
2022-10-12T03:43:23.960Z,20.10
2022-10-12T03:45:50.502Z,23.70
2022-10-12T03:48:16.962Z,19.25
2022-10-12T03:50:49.272Z,19.60
2022-10-12T03:53:16.636Z,15.85
2022-10-12T03:55:43.101Z,25.27
2022-10-12T03:58:09.798Z,22.83
2022-10-12T04:00:36.323Z,19.77
2022-10-12T04:03:02.866Z,19.63
2022-10-12T04:05:30.210Z,15.75
2022-10-12T04:07:57.181Z,20.17
2022-10-12T04:10:24.008Z,20.35
2022-10-12T04:12:50.518Z,19.90
2022-10-12T04:15:18.236Z,17.77
2022-10-12T04:17:44.965Z,21.73
2022-10-12T04:20:12.142Z,19.30
2022-10-12T04:22:39.320Z,18.77
2022-10-12T04:25:06.315Z,20.40
2022-10-12T04:27:32.829Z,17.17
2022-10-12T04:29:59.329Z,25.52
2022-10-12T04:32:25.822Z,20.13
2022-10-12T04:34:52.273Z,18.95
2022-10-12T04:37:18.850Z,21.42
2022-10-12T04:39:45.375Z,25.63
2022-10-12T04:42:11.853Z,17.80
2022-10-12T04:44:38.372Z,24.17
2022-10-12T04:47:04.859Z,22.60
2022-10-12T04:49:31.321Z,15.25
2022-10-12T04:51:57.839Z,20.50
2022-10-12T04:54:24.822Z,16.85
2022-10-12T04:56:51.298Z,21.33
2022-10-12T04:59:17.877Z,18.80
2022-10-12T05:01:44.454Z,23.20
2022-10-12T05:04:11.055Z,20.40
2022-10-12T05:06:37.601Z,21.05
2022-10-12T05:09:04.303Z,17.57
2022-10-12T05:11:30.874Z,25.45
2022-10-12T05:13:57.971Z,28.48
2022-10-12T05:16:24.919Z,18.05
2022-10-12T05:18:51.448Z,15.68
2022-10-12T05:21:18.003Z,20.33
2022-10-12T05:23:44.520Z,17.25
2022-10-12T05:26:11.033Z,21.25
2022-10-12T05:28:41.170Z,26.77
2022-10-12T05:31:08.276Z,18.83
2022-10-12T05:33:34.783Z,21.20
2022-10-12T05:36:01.286Z,20.75
2022-10-12T05:38:28.094Z,25.95
2022-10-12T05:41:00.036Z,24.98
2022-10-12T05:43:27.454Z,18.52
2022-10-12T05:45:54.190Z,31.07
2022-10-12T05:48:20.684Z,24.13
2022-10-12T05:50:47.394Z,25.77
2022-10-12T05:53:13.922Z,33.20
2022-10-12T05:55:40.482Z,27.13
2022-10-12T05:58:07.069Z,27.00
2022-10-12T06:00:33.644Z,25.30
2022-10-12T06:03:00.197Z,25.73
2022-10-12T06:05:26.737Z,28.98
2022-10-12T06:07:53.227Z,27.17
2022-10-12T06:10:19.720Z,27.13
2022-10-12T06:12:46.322Z,28.02
2022-10-12T06:15:12.900Z,29.15
2022-10-12T06:17:39.394Z,28.15
2022-10-12T06:20:06.440Z,29.95
2022-10-12T06:22:32.982Z,29.57
2022-10-12T06:24:59.511Z,26.77
2022-10-12T06:27:25.987Z,25.98
2022-10-12T06:29:52.661Z,32.25
2022-10-12T06:32:19.215Z,23.67
2022-10-12T06:34:46.592Z,28.30
2022-10-12T06:37:25.368Z,25.30
2022-10-12T06:39:59.549Z,24.60
2022-10-12T06:42:26.082Z,32.38
2022-10-12T06:44:52.644Z,26.50
2022-10-12T06:47:19.211Z,33.13
2022-10-12T06:49:45.813Z,29.08
2022-10-12T06:52:12.366Z,22.38
2022-10-12T06:54:38.852Z,28.70
2022-10-12T06:57:06.108Z,22.92
2022-10-12T06:59:32.829Z,35.50
2022-10-12T07:01:59.445Z,28.35
2022-10-12T07:04:25.981Z,35.97
2022-10-12T07:06:52.477Z,35.90
2022-10-12T07:09:18.949Z,30.05
2022-10-12T07:11:45.426Z,30.67
2022-10-12T07:14:11.943Z,35.80
2022-10-12T07:16:38.491Z,31.77
2022-10-12T07:19:05.123Z,29.52
2022-10-12T07:21:31.663Z,34.72
2022-10-12T07:23:58.211Z,34.40
2022-10-12T07:26:24.803Z,31.35
2022-10-12T07:28:51.538Z,36.47
2022-10-12T07:31:18.053Z,29.67
2022-10-12T07:33:44.556Z,33.47
2022-10-12T07:36:15.823Z,44.10
2022-10-12T07:38:45.187Z,39.95
2022-10-12T07:41:12.868Z,29.50
2022-10-12T07:43:39.417Z,29.98
2022-10-12T07:46:06.485Z,38.38
2022-10-12T07:48:33.386Z,30.80
2022-10-12T07:51:07.699Z,33.97
2022-10-12T07:53:35.380Z,30.48
2022-10-12T07:56:03.513Z,23.85
2022-10-12T07:58:30.039Z,24.33
2022-10-12T08:00:56.619Z,25.70
2022-10-12T08:03:23.223Z,27.20
2022-10-12T08:05:49.733Z,29.23
2022-10-12T08:08:16.221Z,29.50
2022-10-12T08:10:42.842Z,25.15
2022-10-12T08:13:09.361Z,21.67
2022-10-12T08:15:35.859Z,28.75
2022-10-12T08:18:03.613Z,27.00
2022-10-12T08:20:30.155Z,32.90
2022-10-12T08:22:56.703Z,35.55
2022-10-12T08:25:23.493Z,26.30
2022-10-12T08:27:49.983Z,31.33
2022-10-12T08:30:16.557Z,28.40
2022-10-12T08:32:43.050Z,24.80
2022-10-12T08:35:09.585Z,25.63
2022-10-12T08:37:36.207Z,23.10
2022-10-12T08:40:03.740Z,29.20
2022-10-12T08:42:37.612Z,23.52
2022-10-12T08:45:25.473Z,24.05
2022-10-12T08:48:01.688Z,22.10
2022-10-12T08:50:40.034Z,29.10
2022-10-12T08:53:40.298Z,23.08
2022-10-12T08:56:07.282Z,33.97
2022-10-12T08:58:37.295Z,22.55
2022-10-12T09:01:19.246Z,22.10
2022-10-12T09:04:09.476Z,19.77
2022-10-12T09:06:50.239Z,16.70
2022-10-12T09:09:50.879Z,23.92
2022-10-12T09:12:35.489Z,17.13
2022-10-12T09:15:08.650Z,17.90
2022-10-12T09:17:47.570Z,22.23
2022-10-12T09:20:30.801Z,23.38
2022-10-12T09:23:20.167Z,20.27
2022-10-12T09:25:47.281Z,26.08
2022-10-12T09:28:25.873Z,18.45
2022-10-12T09:31:11.649Z,19.40
2022-10-12T09:33:46.009Z,20.33
2022-10-12T09:36:19.460Z,17.73
2022-10-12T09:38:46.822Z,16.98
2022-10-12T09:41:25.238Z,17.13
2022-10-12T09:43:59.961Z,17.80
2022-10-12T09:46:40.076Z,18.00
2022-10-12T09:49:06.837Z,17.88
2022-10-12T09:51:33.642Z,18.00
2022-10-12T09:54:05.862Z,15.75
2022-10-12T09:56:41.425Z,15.53
2022-10-12T09:59:39.427Z,24.92
2022-10-12T10:02:14.761Z,17.70
2022-10-12T10:04:43.084Z,14.23
2022-10-12T10:07:34.826Z,18.50
2022-10-12T10:10:04.314Z,11.97
2022-10-12T10:12:31.320Z,16.67
2022-10-12T10:14:59.245Z,16.10
2022-10-12T10:17:32.588Z,17.95
2022-10-12T10:20:03.418Z,16.83
2022-10-12T10:22:30.455Z,21.57
2022-10-12T10:25:00.705Z,21.95
2022-10-12T10:27:30.179Z,18.17
2022-10-12T10:30:29.742Z,19.30
2022-10-12T10:33:25.102Z,17.23
2022-10-12T10:35:59.830Z,15.47
2022-10-12T10:38:27.182Z,14.98
2022-10-12T10:40:57.126Z,17.70
2022-10-12T10:43:27.747Z,23.05
2022-10-12T10:46:03.672Z,24.45
2022-10-12T10:48:37.838Z,20.00
2022-10-12T10:51:07.048Z,15.27
2022-10-12T10:53:44.652Z,16.20
2022-10-12T10:56:21.269Z,17.05
2022-10-12T10:58:56.554Z,19.15
2022-10-12T11:01:36.117Z,15.07
2022-10-12T11:04:07.297Z,15.75
2022-10-12T11:06:42.905Z,16.42
2022-10-12T11:09:29.880Z,16.88
2022-10-12T11:12:09.044Z,23.98
2022-10-12T11:14:42.985Z,20.97
2022-10-12T11:17:20.414Z,15.77
2022-10-12T11:19:55.700Z,15.50
2022-10-12T11:22:36.950Z,16.33
2022-10-12T11:25:14.593Z,16.13
2022-10-12T11:27:42.192Z,17.63
2022-10-12T11:30:28.830Z,22.90
2022-10-12T11:33:01.649Z,19.10
2022-10-12T11:35:32.496Z,14.35
2022-10-12T11:38:43.134Z,14.63
2022-10-12T11:41:35.291Z,19.10
2022-10-12T11:44:35.266Z,12.27
2022-10-12T11:47:12.078Z,19.73
2022-10-12T11:49:41.622Z,14.15
2022-10-12T11:52:12.296Z,16.80
2022-10-12T11:54:52.526Z,14.37
2022-10-12T11:57:27.161Z,18.00
2022-10-12T12:00:01.683Z,18.85
2022-10-12T12:02:40.827Z,14.65
2022-10-12T12:05:16.454Z,11.55
2022-10-12T12:07:53.992Z,12.23
2022-10-12T12:10:23.470Z,12.50
2022-10-12T12:13:13.065Z,8.98
2022-10-12T12:15:41.784Z,16.35
2022-10-12T12:18:21.586Z,13.48
2022-10-12T12:20:48.020Z,18.57
2022-10-12T12:23:39.569Z,12.32
2022-10-12T12:26:16.163Z,10.80
2022-10-12T12:28:52.844Z,11.93
2022-10-12T12:31:22.389Z,13.70
2022-10-12T12:34:00.587Z,8.87
2022-10-12T12:36:30.035Z,12.30
2022-10-12T12:38:56.827Z,14.45
2022-10-12T12:41:56.299Z,10.70
2022-10-12T12:44:45.957Z,10.27
2022-10-12T12:47:43.366Z,11.83
2022-10-12T12:50:29.295Z,16.88
2022-10-12T12:53:19.434Z,14.10
2022-10-12T12:56:04.661Z,8.45
2022-10-12T12:58:40.476Z,12.63
2022-10-12T13:01:44.919Z,11.43
2022-10-12T13:05:02.932Z,8.52
2022-10-12T13:08:04.342Z,15.05
2022-10-12T13:10:50.580Z,20.45
2022-10-12T13:13:19.923Z,10.70
2022-10-12T13:15:52.295Z,16.30
2022-10-12T13:18:47.578Z,9.07
2022-10-12T13:21:27.060Z,11.27
2022-10-12T13:24:03.286Z,15.18
2022-10-12T13:26:32.524Z,11.73
2022-10-12T13:29:01.784Z,11.30
2022-10-12T13:31:41.541Z,12.63
2022-10-12T13:34:13.873Z,15.35
2022-10-12T13:36:49.354Z,15.60
2022-10-12T13:39:18.732Z,29.60
2022-10-12T13:41:48.340Z,14.13
2022-10-12T13:44:29.129Z,14.77
2022-10-12T13:46:56.817Z,11.40
2022-10-12T13:49:34.806Z,15.30
2022-10-12T13:52:18.164Z,16.08
2022-10-12T13:54:48.634Z,16.07
2022-10-12T13:57:23.986Z,10.52
2022-10-12T13:59:56.314Z,16.80
2022-10-12T14:02:26.683Z,10.77
2022-10-12T14:04:55.903Z,13.02
2022-10-12T14:07:28.595Z,13.53
2022-10-12T14:09:59.864Z,17.98
2022-10-12T14:12:30.247Z,9.82
2022-10-12T14:14:57.404Z,11.05
2022-10-12T14:17:24.914Z,16.45
2022-10-12T14:19:53.601Z,18.10
2022-10-12T14:22:32.376Z,16.60
2022-10-12T14:25:20.713Z,13.45
2022-10-12T14:27:55.081Z,22.50
2022-10-12T14:30:29.419Z,13.38
2022-10-12T14:33:09.413Z,12.57
2022-10-12T14:35:37.996Z,19.33
2022-10-12T14:38:40.884Z,13.70
2022-10-12T14:41:29.449Z,12.20
2022-10-12T14:44:13.724Z,17.52
2022-10-12T14:46:52.397Z,11.37
2022-10-12T14:49:22.398Z,13.30
2022-10-12T14:51:51.429Z,12.93
2022-10-12T14:54:17.953Z,10.50
2022-10-12T14:56:44.491Z,12.00
2022-10-12T14:59:11.188Z,9.83
2022-10-12T15:01:41.058Z,17.80
2022-10-12T15:04:12.796Z,8.15
2022-10-12T15:06:39.552Z,12.80
2022-10-12T15:09:06.112Z,9.15
2022-10-12T15:11:32.732Z,9.00
2022-10-12T15:13:59.223Z,8.93
2022-10-12T15:16:28.589Z,9.25
2022-10-12T15:18:55.158Z,7.60
2022-10-12T15:21:21.830Z,10.85
2022-10-12T15:23:48.402Z,11.50
2022-10-12T15:26:17.503Z,12.27
2022-10-12T15:28:44.771Z,9.93
2022-10-12T15:31:18.258Z,9.88
2022-10-12T15:33:45.263Z,9.23
2022-10-12T15:36:11.870Z,8.93
2022-10-12T15:38:38.500Z,13.70
2022-10-12T15:41:05.780Z,9.45
2022-10-12T15:43:33.826Z,12.50
2022-10-12T15:46:02.490Z,12.75
2022-10-12T15:48:29.199Z,10.17
2022-10-12T15:50:55.997Z,8.85
2022-10-12T15:53:24.893Z,12.32
2022-10-12T15:55:53.034Z,14.85
2022-10-12T15:58:20.114Z,14.70
2022-10-12T16:00:46.834Z,12.13
2022-10-12T16:03:25.263Z,15.57
2022-10-12T16:05:53.318Z,12.48
2022-10-12T16:08:19.888Z,10.68
2022-10-12T16:10:47.945Z,9.90
2022-10-12T16:13:15.623Z,10.17
2022-10-12T16:15:42.658Z,9.50
2022-10-12T16:18:10.355Z,12.05
2022-10-12T16:20:38.844Z,13.32
2022-10-12T16:23:08.770Z,11.77
2022-10-12T16:25:35.602Z,10.80
2022-10-12T16:28:02.083Z,13.88
2022-10-12T16:30:29.045Z,14.10
2022-10-12T16:32:55.595Z,13.90
2022-10-12T16:35:22.771Z,15.32
2022-10-12T16:37:49.251Z,9.80
2022-10-12T16:40:16.260Z,14.50
2022-10-12T16:42:42.959Z,9.52
2022-10-12T16:45:10.788Z,17.98
2022-10-12T16:47:42.775Z,16.20
2022-10-12T16:50:10.582Z,14.07
2022-10-12T16:52:37.195Z,18.58
2022-10-12T16:55:05.070Z,17.60
2022-10-12T16:57:31.599Z,12.45
2022-10-12T16:59:58.782Z,14.38
2022-10-12T17:02:27.398Z,13.30
2022-10-12T17:04:54.236Z,14.52
2022-10-12T17:07:20.719Z,15.13
2022-10-12T17:09:47.297Z,19.40
2022-10-12T17:12:14.167Z,17.73
2022-10-12T17:14:41.162Z,13.67
2022-10-12T17:17:07.647Z,16.65
2022-10-12T17:19:40.678Z,16.23
2022-10-12T17:22:09.660Z,17.65
2022-10-12T17:24:37.954Z,15.00
2022-10-12T17:27:06.715Z,17.70
2022-10-12T17:29:36.393Z,16.60
2022-10-12T17:32:04.096Z,19.88
2022-10-12T17:34:33.744Z,15.85
2022-10-12T17:37:02.078Z,14.40
2022-10-12T17:39:30.859Z,14.27
2022-10-12T17:41:57.383Z,14.27
2022-10-12T17:44:23.964Z,20.63
2022-10-12T17:46:50.565Z,20.77
2022-10-12T17:49:24.297Z,22.02
2022-10-12T17:51:51.512Z,22.90
2022-10-12T17:54:19.480Z,15.75
2022-10-12T17:56:46.420Z,18.67
2022-10-12T17:59:18.266Z,18.02
2022-10-12T18:01:45.078Z,18.30
2022-10-12T18:04:12.401Z,15.33
2022-10-12T18:06:39.554Z,16.90
2022-10-12T18:09:07.277Z,16.08
2022-10-12T18:11:33.899Z,21.25
2022-10-12T18:14:00.603Z,13.13
2022-10-12T18:16:30.067Z,19.73
2022-10-12T18:18:59.489Z,18.35
2022-10-12T18:21:28.427Z,17.95
2022-10-12T18:23:55.121Z,16.10
2022-10-12T18:26:22.362Z,21.25
2022-10-12T18:28:50.263Z,21.97
2022-10-12T18:31:22.417Z,15.27
2022-10-12T18:33:49.623Z,17.50
2022-10-12T18:36:17.787Z,22.67
2022-10-12T18:38:44.355Z,17.45
2022-10-12T18:41:13.940Z,17.73
2022-10-12T18:43:40.569Z,18.42
2022-10-12T18:46:07.988Z,13.52
2022-10-12T18:48:34.970Z,12.82
2022-10-12T18:51:15.735Z,17.52
2022-10-12T18:53:42.269Z,14.83
2022-10-12T18:56:09.963Z,12.82
2022-10-12T18:58:38.195Z,17.23
2022-10-12T19:01:15.995Z,13.82
2022-10-12T19:03:42.756Z,16.98
2022-10-12T19:06:12.410Z,15.77
2022-10-12T19:08:38.997Z,21.20
2022-10-12T19:11:08.161Z,22.42
2022-10-12T19:13:35.756Z,17.73
2022-10-12T19:16:08.033Z,21.88
2022-10-12T19:18:35.068Z,17.37
2022-10-12T19:21:07.217Z,14.98
2022-10-12T19:23:34.697Z,15.68
2022-10-12T19:26:08.194Z,12.90
2022-10-12T19:28:35.443Z,16.23
2022-10-12T19:31:08.325Z,18.43
2022-10-12T19:33:34.798Z,19.60
2022-10-12T19:36:06.213Z,15.68
2022-10-12T19:38:33.453Z,17.35
2022-10-12T19:41:00.276Z,20.65
2022-10-12T19:43:27.515Z,24.67
2022-10-12T19:45:54.008Z,14.93
2022-10-12T19:48:20.502Z,13.05
2022-10-12T19:50:47.020Z,16.13
2022-10-12T19:53:13.623Z,14.10
2022-10-12T19:55:40.180Z,14.67
2022-10-12T19:58:07.590Z,19.42
2022-10-12T20:00:35.955Z,12.63
2022-10-12T20:03:05.385Z,18.05
2022-10-12T20:05:31.871Z,20.45
2022-10-12T20:07:58.378Z,23.03
2022-10-12T20:10:25.022Z,18.60
2022-10-12T20:12:51.648Z,26.67
2022-10-12T20:15:18.275Z,22.60
2022-10-12T20:17:44.832Z,20.08
2022-10-12T20:20:11.483Z,27.00
2022-10-12T20:22:38.195Z,16.08
2022-10-12T20:25:09.330Z,22.20
2022-10-12T20:27:36.620Z,15.10
2022-10-12T20:30:04.332Z,18.50
2022-10-12T20:32:30.907Z,19.70
2022-10-12T20:34:57.426Z,21.52
2022-10-12T20:37:23.966Z,15.82
2022-10-12T20:39:51.730Z,19.38
2022-10-12T20:42:21.889Z,20.10
2022-10-12T20:44:49.083Z,15.23
2022-10-12T20:47:15.902Z,20.25
2022-10-12T20:49:42.494Z,15.88
2022-10-12T20:52:09.668Z,18.23
2022-10-12T20:54:37.190Z,16.33
2022-10-12T20:57:04.887Z,19.17
2022-10-12T20:59:34.421Z,18.98
2022-10-12T21:02:00.965Z,18.17
2022-10-12T21:04:28.371Z,27.33
2022-10-12T21:06:54.891Z,20.55
2022-10-12T21:09:21.505Z,18.40
2022-10-12T21:11:48.032Z,17.23
2022-10-12T21:14:14.602Z,21.08
2022-10-12T21:16:41.734Z,20.50
2022-10-12T21:19:08.421Z,16.13
2022-10-12T21:21:34.900Z,22.03
2022-10-12T21:24:01.750Z,19.20
2022-10-12T21:26:30.702Z,19.17
2022-10-12T21:28:58.794Z,17.38
2022-10-12T21:31:30.979Z,24.63
2022-10-12T21:34:01.254Z,23.23
2022-10-12T21:36:29.376Z,18.05
2022-10-12T21:38:56.450Z,22.70
2022-10-12T21:41:25.812Z,22.23
2022-10-12T21:43:53.283Z,20.40
2022-10-12T21:46:23.386Z,17.67
2022-10-12T21:48:50.429Z,17.13
2022-10-12T21:51:18.091Z,21.13
2022-10-12T21:53:44.804Z,21.00
2022-10-12T21:56:16.231Z,21.60
2022-10-12T21:58:42.741Z,18.67
2022-10-12T22:01:14.663Z,19.35
2022-10-12T22:03:42.696Z,18.50
2022-10-12T22:06:18.305Z,22.55
2022-10-12T22:08:49.254Z,22.70
2022-10-12T22:11:15.742Z,22.27
2022-10-12T22:13:42.449Z,18.38
2022-10-12T22:16:12.840Z,19.10
2022-10-12T22:18:40.449Z,26.25
2022-10-12T22:21:10.798Z,19.42
2022-10-12T22:23:37.257Z,19.57
2022-10-12T22:26:16.349Z,25.15
2022-10-12T22:28:43.030Z,22.13
2022-10-12T22:31:11.649Z,18.40
2022-10-12T22:33:38.339Z,29.05
2022-10-12T22:36:07.370Z,26.90
2022-10-12T22:38:34.984Z,21.48
2022-10-12T22:41:16.452Z,29.05
2022-10-12T22:43:43.019Z,19.50
2022-10-12T22:46:09.825Z,25.33
2022-10-12T22:48:37.348Z,16.43
2022-10-12T22:51:05.823Z,19.40
2022-10-12T22:53:33.280Z,21.42
2022-10-12T22:56:02.445Z,21.48
2022-10-12T22:58:29.325Z,27.27
2022-10-12T23:01:22.214Z,19.03
2022-10-12T23:03:48.966Z,23.13
2022-10-12T23:06:17.669Z,28.83
2022-10-12T23:08:44.613Z,23.13
2022-10-12T23:11:18.016Z,19.27
2022-10-12T23:13:45.081Z,22.63
2022-10-12T23:16:13.997Z,19.38
2022-10-12T23:18:40.709Z,26.13
2022-10-12T23:21:09.848Z,21.48
2022-10-12T23:23:38.096Z,18.90
2022-10-12T23:26:10.977Z,21.73
2022-10-12T23:28:37.807Z,21.73
2022-10-12T23:31:05.882Z,25.23
2022-10-12T23:33:33.177Z,27.05
2022-10-12T23:36:03.192Z,16.20
2022-10-12T23:38:31.680Z,25.20
2022-10-12T23:40:58.212Z,23.83
2022-10-12T23:43:26.088Z,22.73
2022-10-12T23:45:53.663Z,25.45
2022-10-12T23:48:20.432Z,22.20
2022-10-12T23:50:47.078Z,23.33
2022-10-12T23:53:14.305Z,22.33
2022-10-12T23:55:40.775Z,25.20
2022-10-12T23:58:07.322Z,22.38
